sensor_id;sensor_type;location;lat;lon;timestamp;P1;durP1;ratioP1;P2;durP2;ratioP2
49153;SDS011;49455;52.252;9.124;2023-07-13T00:03:05;6.70;;;3.23;;
49153;SDS011;49455;52.252;9.124;2023-07-13T00:08:06;6.23;;;2.90;;
49153;SDS011;49455;52.252;9.124;2023-07-13T00:13:07;5.75;;;2.90;;
49153;SDS011;49455;52.252;9.124;2023-07-13T00:18:07;6.97;;;2.75;;
49153;SDS011;49455;52.252;9.124;2023-07-13T00:23:08;7.57;;;3.15;;
49153;SDS011;49455;52.252;9.124;2023-07-13T00:28:08;6.65;;;3.00;;
49153;SDS011;49455;52.252;9.124;2023-07-13T00:33:09;6.32;;;3.00;;
49153;SDS011;49455;52.252;9.124;2023-07-13T00:38:09;6.30;;;2.87;;
49153;SDS011;49455;52.252;9.124;2023-07-13T00:43:19;5.88;;;2.83;;
49153;SDS011;49455;52.252;9.124;2023-07-13T00:48:21;6.65;;;3.10;;
49153;SDS011;49455;52.252;9.124;2023-07-13T00:53:26;9.88;;;3.30;;
49153;SDS011;49455;52.252;9.124;2023-07-13T00:58:29;6.38;;;2.80;;
49153;SDS011;49455;52.252;9.124;2023-07-13T01:03:31;6.90;;;3.05;;
49153;SDS011;49455;52.252;9.124;2023-07-13T01:08:32;10.68;;;3.33;;
49153;SDS011;49455;52.252;9.124;2023-07-13T01:13:34;7.28;;;3.20;;
49153;SDS011;49455;52.252;9.124;2023-07-13T01:18:35;6.45;;;3.22;;
49153;SDS011;49455;52.252;9.124;2023-07-13T01:23:35;7.53;;;3.20;;
49153;SDS011;49455;52.252;9.124;2023-07-13T01:28:35;6.65;;;2.85;;
49153;SDS011;49455;52.252;9.124;2023-07-13T01:33:37;6.80;;;2.80;;
49153;SDS011;49455;52.252;9.124;2023-07-13T01:38:38;5.93;;;3.05;;
49153;SDS011;49455;52.252;9.124;2023-07-13T01:43:38;6.53;;;2.90;;
49153;SDS011;49455;52.252;9.124;2023-07-13T01:48:40;7.72;;;2.90;;
49153;SDS011;49455;52.252;9.124;2023-07-13T01:53:41;10.13;;;3.20;;
49153;SDS011;49455;52.252;9.124;2023-07-13T01:58:41;6.70;;;3.00;;
49153;SDS011;49455;52.252;9.124;2023-07-13T02:03:42;7.47;;;2.87;;
49153;SDS011;49455;52.252;9.124;2023-07-13T02:08:42;6.38;;;2.70;;
49153;SDS011;49455;52.252;9.124;2023-07-13T02:13:42;8.30;;;2.78;;
49153;SDS011;49455;52.252;9.124;2023-07-13T02:18:43;9.10;;;2.60;;
49153;SDS011;49455;52.252;9.124;2023-07-13T02:23:43;7.15;;;2.47;;
49153;SDS011;49455;52.252;9.124;2023-07-13T02:28:44;6.90;;;2.50;;
49153;SDS011;49455;52.252;9.124;2023-07-13T02:33:45;8.23;;;2.70;;
49153;SDS011;49455;52.252;9.124;2023-07-13T02:38:46;7.50;;;2.45;;
49153;SDS011;49455;52.252;9.124;2023-07-13T02:43:46;5.47;;;2.63;;
49153;SDS011;49455;52.252;9.124;2023-07-13T02:48:47;7.33;;;2.40;;
49153;SDS011;49455;52.252;9.124;2023-07-13T02:53:47;5.60;;;2.40;;
49153;SDS011;49455;52.252;9.124;2023-07-13T02:58:48;5.65;;;2.90;;
49153;SDS011;49455;52.252;9.124;2023-07-13T03:03:49;8.13;;;3.37;;
49153;SDS011;49455;52.252;9.124;2023-07-13T03:08:52;7.22;;;3.53;;
49153;SDS011;49455;52.252;9.124;2023-07-13T03:13:52;7.50;;;3.00;;
49153;SDS011;49455;52.252;9.124;2023-07-13T03:18:54;8.90;;;3.67;;
49153;SDS011;49455;52.252;9.124;2023-07-13T03:23:56;6.63;;;2.90;;
49153;SDS011;49455;52.252;9.124;2023-07-13T03:28:56;7.78;;;3.38;;
49153;SDS011;49455;52.252;9.124;2023-07-13T03:33:58;10.23;;;3.20;;
49153;SDS011;49455;52.252;9.124;2023-07-13T03:38:59;8.98;;;3.33;;
49153;SDS011;49455;52.252;9.124;2023-07-13T03:44:11;10.10;;;3.55;;
49153;SDS011;49455;52.252;9.124;2023-07-13T03:49:11;7.22;;;3.10;;
49153;SDS011;49455;52.252;9.124;2023-07-13T03:54:12;8.10;;;3.28;;
49153;SDS011;49455;52.252;9.124;2023-07-13T03:59:13;10.25;;;3.47;;
49153;SDS011;49455;52.252;9.124;2023-07-13T04:04:13;7.53;;;3.17;;
49153;SDS011;49455;52.252;9.124;2023-07-13T04:09:13;8.07;;;3.10;;
49153;SDS011;49455;52.252;9.124;2023-07-13T04:14:14;13.15;;;3.28;;
49153;SDS011;49455;52.252;9.124;2023-07-13T04:19:15;8.75;;;3.15;;
49153;SDS011;49455;52.252;9.124;2023-07-13T04:24:15;6.07;;;2.90;;
49153;SDS011;49455;52.252;9.124;2023-07-13T04:29:16;10.63;;;3.50;;
49153;SDS011;49455;52.252;9.124;2023-07-13T04:34:16;9.60;;;3.57;;
49153;SDS011;49455;52.252;9.124;2023-07-13T04:39:16;9.17;;;3.47;;
49153;SDS011;49455;52.252;9.124;2023-07-13T04:44:17;8.97;;;3.40;;
49153;SDS011;49455;52.252;9.124;2023-07-13T04:49:17;9.70;;;3.17;;
49153;SDS011;49455;52.252;9.124;2023-07-13T04:54:18;7.10;;;2.90;;
49153;SDS011;49455;52.252;9.124;2023-07-13T04:59:18;6.80;;;3.00;;
49153;SDS011;49455;52.252;9.124;2023-07-13T05:04:18;9.20;;;3.25;;
49153;SDS011;49455;52.252;9.124;2023-07-13T05:09:19;9.75;;;3.45;;
49153;SDS011;49455;52.252;9.124;2023-07-13T05:14:19;9.68;;;3.17;;
49153;SDS011;49455;52.252;9.124;2023-07-13T05:19:20;9.30;;;3.50;;
49153;SDS011;49455;52.252;9.124;2023-07-13T05:24:21;7.27;;;3.10;;
49153;SDS011;49455;52.252;9.124;2023-07-13T05:29:21;8.80;;;3.53;;
49153;SDS011;49455;52.252;9.124;2023-07-13T05:34:22;10.48;;;3.72;;
49153;SDS011;49455;52.252;9.124;2023-07-13T05:39:23;8.85;;;3.63;;
49153;SDS011;49455;52.252;9.124;2023-07-13T05:44:23;8.95;;;3.35;;
49153;SDS011;49455;52.252;9.124;2023-07-13T05:49:24;8.20;;;3.57;;
49153;SDS011;49455;52.252;9.124;2023-07-13T05:54:24;10.60;;;3.60;;
49153;SDS011;49455;52.252;9.124;2023-07-13T05:59:25;8.52;;;2.78;;
49153;SDS011;49455;52.252;9.124;2023-07-13T06:04:25;10.07;;;3.43;;
49153;SDS011;49455;52.252;9.124;2023-07-13T06:09:25;7.70;;;3.03;;
49153;SDS011;49455;52.252;9.124;2023-07-13T06:14:26;8.53;;;3.20;;
49153;SDS011;49455;52.252;9.124;2023-07-13T06:19:26;9.47;;;2.90;;
49153;SDS011;49455;52.252;9.124;2023-07-13T06:24:26;8.37;;;3.17;;
49153;SDS011;49455;52.252;9.124;2023-07-13T06:29:27;7.93;;;3.30;;
49153;SDS011;49455;52.252;9.124;2023-07-13T06:34:27;8.13;;;2.80;;
49153;SDS011;49455;52.252;9.124;2023-07-13T06:39:27;13.93;;;2.90;;
49153;SDS011;49455;52.252;9.124;2023-07-13T06:44:28;7.67;;;2.90;;
49153;SDS011;49455;52.252;9.124;2023-07-13T06:49:28;10.03;;;2.90;;
49153;SDS011;49455;52.252;9.124;2023-07-13T06:54:29;9.43;;;2.72;;
49153;SDS011;49455;52.252;9.124;2023-07-13T06:59:29;8.77;;;2.40;;
49153;SDS011;49455;52.252;9.124;2023-07-13T07:04:29;9.30;;;2.77;;
49153;SDS011;49455;52.252;9.124;2023-07-13T07:09:30;7.90;;;2.60;;
49153;SDS011;49455;52.252;9.124;2023-07-13T07:14:31;9.68;;;2.60;;
49153;SDS011;49455;52.252;9.124;2023-07-13T07:19:31;7.97;;;2.60;;
49153;SDS011;49455;52.252;9.124;2023-07-13T07:24:32;8.95;;;2.70;;
49153;SDS011;49455;52.252;9.124;2023-07-13T07:29:32;11.68;;;2.97;;
49153;SDS011;49455;52.252;9.124;2023-07-13T07:34:33;8.68;;;2.80;;
49153;SDS011;49455;52.252;9.124;2023-07-13T07:39:33;8.80;;;3.10;;
49153;SDS011;49455;52.252;9.124;2023-07-13T07:44:33;9.30;;;3.22;;
49153;SDS011;49455;52.252;9.124;2023-07-13T07:49:35;9.57;;;3.10;;
49153;SDS011;49455;52.252;9.124;2023-07-13T07:54:36;9.75;;;3.10;;
49153;SDS011;49455;52.252;9.124;2023-07-13T07:59:37;6.90;;;2.90;;
49153;SDS011;49455;52.252;9.124;2023-07-13T08:04:37;7.90;;;3.00;;
49153;SDS011;49455;52.252;9.124;2023-07-13T08:09:38;7.43;;;2.95;;
49153;SDS011;49455;52.252;9.124;2023-07-13T08:14:38;7.17;;;3.20;;
49153;SDS011;49455;52.252;9.124;2023-07-13T08:19:38;9.10;;;2.97;;
49153;SDS011;49455;52.252;9.124;2023-07-13T08:24:39;8.63;;;3.27;;
49153;SDS011;49455;52.252;9.124;2023-07-13T08:29:39;9.67;;;4.87;;
49153;SDS011;49455;52.252;9.124;2023-07-13T08:34:40;11.63;;;3.30;;
49153;SDS011;49455;52.252;9.124;2023-07-13T08:39:40;9.90;;;3.17;;
49153;SDS011;49455;52.252;9.124;2023-07-13T08:50:24;8.13;;;2.95;;
49153;SDS011;49455;52.252;9.124;2023-07-13T08:55:30;12.55;;;3.30;;
49153;SDS011;49455;52.252;9.124;2023-07-13T09:00:39;8.35;;;3.15;;
49153;SDS011;49455;52.252;9.124;2023-07-13T09:05:53;8.40;;;3.20;;
49153;SDS011;49455;52.252;9.124;2023-07-13T09:16:23;9.02;;;2.80;;
49153;SDS011;49455;52.252;9.124;2023-07-13T09:21:26;7.80;;;2.78;;
49153;SDS011;49455;52.252;9.124;2023-07-13T09:26:31;8.13;;;2.72;;
49153;SDS011;49455;52.252;9.124;2023-07-13T09:31:34;6.30;;;2.72;;
49153;SDS011;49455;52.252;9.124;2023-07-13T09:36:39;7.43;;;2.97;;
49153;SDS011;49455;52.252;9.124;2023-07-13T09:41:41;7.57;;;2.60;;
49153;SDS011;49455;52.252;9.124;2023-07-13T09:46:52;6.63;;;2.70;;
49153;SDS011;49455;52.252;9.124;2023-07-13T09:56:59;9.70;;;2.97;;
49153;SDS011;49455;52.252;9.124;2023-07-13T10:02:00;7.18;;;2.25;;
49153;SDS011;49455;52.252;9.124;2023-07-13T10:07:04;9.27;;;2.60;;
49153;SDS011;49455;52.252;9.124;2023-07-13T10:12:13;6.22;;;2.50;;
49153;SDS011;49455;52.252;9.124;2023-07-13T10:17:14;6.40;;;2.40;;
49153;SDS011;49455;52.252;9.124;2023-07-13T10:22:27;9.10;;;2.85;;
49153;SDS011;49455;52.252;9.124;2023-07-13T10:27:36;7.70;;;2.50;;
49153;SDS011;49455;52.252;9.124;2023-07-13T10:32:37;5.53;;;2.45;;
49153;SDS011;49455;52.252;9.124;2023-07-13T10:37:47;5.80;;;2.20;;
49153;SDS011;49455;52.252;9.124;2023-07-13T10:42:48;5.78;;;2.40;;
49153;SDS011;49455;52.252;9.124;2023-07-13T10:47:52;5.82;;;2.45;;
49153;SDS011;49455;52.252;9.124;2023-07-13T10:52:54;8.48;;;2.38;;
49153;SDS011;49455;52.252;9.124;2023-07-13T10:57:59;5.22;;;2.00;;
49153;SDS011;49455;52.252;9.124;2023-07-13T11:03:01;4.63;;;2.25;;
49153;SDS011;49455;52.252;9.124;2023-07-13T11:08:19;5.50;;;2.50;;
49153;SDS011;49455;52.252;9.124;2023-07-13T11:34:35;7.25;;;2.53;;
49153;SDS011;49455;52.252;9.124;2023-07-13T11:39:39;7.75;;;2.92;;
49153;SDS011;49455;52.252;9.124;2023-07-13T11:44:47;6.13;;;2.60;;
49153;SDS011;49455;52.252;9.124;2023-07-13T11:49:49;6.78;;;2.65;;
49153;SDS011;49455;52.252;9.124;2023-07-13T11:54:54;5.22;;;2.30;;
49153;SDS011;49455;52.252;9.124;2023-07-13T11:59:56;6.60;;;2.58;;
49153;SDS011;49455;52.252;9.124;2023-07-13T12:04:59;5.22;;;2.38;;
49153;SDS011;49455;52.252;9.124;2023-07-13T12:10:17;6.55;;;2.78;;
49153;SDS011;49455;52.252;9.124;2023-07-13T12:15:22;7.82;;;2.80;;
49153;SDS011;49455;52.252;9.124;2023-07-13T12:20:25;5.97;;;3.00;;
49153;SDS011;49455;52.252;9.124;2023-07-13T12:25:28;8.65;;;3.13;;
49153;SDS011;49455;52.252;9.124;2023-07-13T12:30:30;6.57;;;2.92;;
49153;SDS011;49455;52.252;9.124;2023-07-13T12:35:32;5.78;;;2.90;;
49153;SDS011;49455;52.252;9.124;2023-07-13T12:40:41;7.32;;;3.30;;
49153;SDS011;49455;52.252;9.124;2023-07-13T12:46:02;6.22;;;3.33;;
49153;SDS011;49455;52.252;9.124;2023-07-13T12:51:26;8.38;;;4.03;;
49153;SDS011;49455;52.252;9.124;2023-07-13T12:56:27;10.15;;;3.60;;
49153;SDS011;49455;52.252;9.124;2023-07-13T13:01:29;5.13;;;3.00;;
49153;SDS011;49455;52.252;9.124;2023-07-13T13:06:34;7.55;;;3.92;;
49153;SDS011;49455;52.252;9.124;2023-07-13T13:11:35;8.65;;;4.00;;
49153;SDS011;49455;52.252;9.124;2023-07-13T13:16:37;6.20;;;3.83;;
49153;SDS011;49455;52.252;9.124;2023-07-13T13:21:45;8.15;;;3.90;;
49153;SDS011;49455;52.252;9.124;2023-07-13T13:26:46;6.68;;;2.60;;
49153;SDS011;49455;52.252;9.124;2023-07-13T13:31:48;7.05;;;2.60;;
49153;SDS011;49455;52.252;9.124;2023-07-13T13:36:49;7.93;;;2.38;;
49153;SDS011;49455;52.252;9.124;2023-07-13T13:41:50;5.65;;;2.72;;
49153;SDS011;49455;52.252;9.124;2023-07-13T13:46:52;4.47;;;2.03;;
49153;SDS011;49455;52.252;9.124;2023-07-13T13:51:55;5.70;;;2.20;;
49153;SDS011;49455;52.252;9.124;2023-07-13T13:56:56;4.00;;;2.40;;
49153;SDS011;49455;52.252;9.124;2023-07-13T14:01:56;5.50;;;2.57;;
49153;SDS011;49455;52.252;9.124;2023-07-13T14:06:56;5.90;;;2.40;;
49153;SDS011;49455;52.252;9.124;2023-07-13T14:11:57;7.90;;;2.10;;
49153;SDS011;49455;52.252;9.124;2023-07-13T14:16:57;5.07;;;2.25;;
49153;SDS011;49455;52.252;9.124;2023-07-13T14:21:58;4.07;;;2.13;;
49153;SDS011;49455;52.252;9.124;2023-07-13T14:26:58;6.83;;;2.30;;
49153;SDS011;49455;52.252;9.124;2023-07-13T14:31:58;4.27;;;2.40;;
49153;SDS011;49455;52.252;9.124;2023-07-13T14:36:59;4.63;;;2.40;;
49153;SDS011;49455;52.252;9.124;2023-07-13T14:41:59;6.13;;;2.70;;
49153;SDS011;49455;52.252;9.124;2023-07-13T14:47:00;5.93;;;2.60;;
49153;SDS011;49455;52.252;9.124;2023-07-13T14:52:17;6.03;;;3.00;;
49153;SDS011;49455;52.252;9.124;2023-07-13T14:57:19;5.70;;;2.50;;
49153;SDS011;49455;52.252;9.124;2023-07-13T15:02:31;4.40;;;2.30;;
49153;SDS011;49455;52.252;9.124;2023-07-13T15:07:34;5.28;;;2.00;;
49153;SDS011;49455;52.252;9.124;2023-07-13T15:12:35;3.28;;;2.03;;
49153;SDS011;49455;52.252;9.124;2023-07-13T15:17:45;4.60;;;2.00;;
49153;SDS011;49455;52.252;9.124;2023-07-13T15:22:47;4.22;;;2.25;;
49153;SDS011;49455;52.252;9.124;2023-07-13T15:27:48;4.95;;;2.60;;
49153;SDS011;49455;52.252;9.124;2023-07-13T15:32:48;5.33;;;2.40;;
49153;SDS011;49455;52.252;9.124;2023-07-13T15:37:49;6.82;;;3.47;;
49153;SDS011;49455;52.252;9.124;2023-07-13T15:42:50;4.53;;;2.90;;
49153;SDS011;49455;52.252;9.124;2023-07-13T15:47:51;7.43;;;3.08;;
49153;SDS011;49455;52.252;9.124;2023-07-13T15:52:52;4.53;;;2.85;;
49153;SDS011;49455;52.252;9.124;2023-07-13T15:57:54;5.68;;;2.40;;
49153;SDS011;49455;52.252;9.124;2023-07-13T16:02:54;5.00;;;2.60;;
49153;SDS011;49455;52.252;9.124;2023-07-13T16:07:55;4.80;;;2.53;;
49153;SDS011;49455;52.252;9.124;2023-07-13T16:12:56;4.47;;;2.42;;
49153;SDS011;49455;52.252;9.124;2023-07-13T16:17:57;4.53;;;2.50;;
49153;SDS011;49455;52.252;9.124;2023-07-13T16:22:57;4.00;;;2.33;;
49153;SDS011;49455;52.252;9.124;2023-07-13T16:27:58;5.65;;;2.60;;
49153;SDS011;49455;52.252;9.124;2023-07-13T16:32:59;4.72;;;2.47;;
49153;SDS011;49455;52.252;9.124;2023-07-13T16:38:01;5.28;;;2.78;;
49153;SDS011;49455;52.252;9.124;2023-07-13T16:43:19;4.57;;;2.88;;
49153;SDS011;49455;52.252;9.124;2023-07-13T16:48:21;5.28;;;2.80;;
49153;SDS011;49455;52.252;9.124;2023-07-13T16:53:24;4.78;;;3.00;;
49153;SDS011;49455;52.252;9.124;2023-07-13T16:58:29;6.70;;;3.40;;
49153;SDS011;49455;52.252;9.124;2023-07-13T17:03:31;4.80;;;3.00;;
49153;SDS011;49455;52.252;9.124;2023-07-13T17:08:31;6.00;;;2.90;;
49153;SDS011;49455;52.252;9.124;2023-07-13T17:13:32;6.83;;;3.00;;
49153;SDS011;49455;52.252;9.124;2023-07-13T17:18:32;6.10;;;3.20;;
49153;SDS011;49455;52.252;9.124;2023-07-13T17:23:33;5.22;;;3.50;;
49153;SDS011;49455;52.252;9.124;2023-07-13T17:28:33;6.78;;;3.75;;
49153;SDS011;49455;52.252;9.124;2023-07-13T17:33:34;5.68;;;3.80;;
49153;SDS011;49455;52.252;9.124;2023-07-13T17:38:37;5.95;;;3.65;;
49153;SDS011;49455;52.252;9.124;2023-07-13T17:43:44;7.30;;;3.75;;
49153;SDS011;49455;52.252;9.124;2023-07-13T17:48:45;6.78;;;3.80;;
49153;SDS011;49455;52.252;9.124;2023-07-13T17:53:46;7.60;;;4.20;;
49153;SDS011;49455;52.252;9.124;2023-07-13T17:58:46;6.07;;;4.05;;
49153;SDS011;49455;52.252;9.124;2023-07-13T18:03:48;7.43;;;4.30;;
49153;SDS011;49455;52.252;9.124;2023-07-13T18:08:52;5.55;;;3.80;;
49153;SDS011;49455;52.252;9.124;2023-07-13T18:13:54;7.72;;;4.68;;
49153;SDS011;49455;52.252;9.124;2023-07-13T18:18:58;7.53;;;3.93;;
49153;SDS011;49455;52.252;9.124;2023-07-13T18:24:00;7.22;;;4.68;;
49153;SDS011;49455;52.252;9.124;2023-07-13T18:29:01;7.85;;;4.68;;
49153;SDS011;49455;52.252;9.124;2023-07-13T18:34:01;6.90;;;4.28;;
49153;SDS011;49455;52.252;9.124;2023-07-13T18:39:02;7.80;;;4.00;;
49153;SDS011;49455;52.252;9.124;2023-07-13T18:44:02;7.80;;;4.20;;
49153;SDS011;49455;52.252;9.124;2023-07-13T18:49:03;7.75;;;4.63;;
49153;SDS011;49455;52.252;9.124;2023-07-13T18:54:05;6.97;;;4.32;;
49153;SDS011;49455;52.252;9.124;2023-07-13T18:59:12;9.23;;;5.10;;
49153;SDS011;49455;52.252;9.124;2023-07-13T19:04:28;8.77;;;5.10;;
49153;SDS011;49455;52.252;9.124;2023-07-13T19:09:32;7.20;;;4.50;;
49153;SDS011;49455;52.252;9.124;2023-07-13T19:14:32;8.50;;;4.83;;
49153;SDS011;49455;52.252;9.124;2023-07-13T19:19:33;7.80;;;4.38;;
49153;SDS011;49455;52.252;9.124;2023-07-13T19:24:33;9.17;;;5.17;;
49153;SDS011;49455;52.252;9.124;2023-07-13T19:29:34;9.00;;;5.20;;
49153;SDS011;49455;52.252;9.124;2023-07-13T19:34:34;7.50;;;4.70;;
49153;SDS011;49455;52.252;9.124;2023-07-13T19:39:36;6.07;;;4.68;;
49153;SDS011;49455;52.252;9.124;2023-07-13T19:44:38;8.85;;;4.90;;
49153;SDS011;49455;52.252;9.124;2023-07-13T19:49:39;7.35;;;4.80;;
49153;SDS011;49455;52.252;9.124;2023-07-13T19:54:39;9.40;;;5.05;;
49153;SDS011;49455;52.252;9.124;2023-07-13T19:59:40;10.20;;;5.40;;
49153;SDS011;49455;52.252;9.124;2023-07-13T20:04:40;8.25;;;5.18;;
49153;SDS011;49455;52.252;9.124;2023-07-13T20:09:41;9.40;;;5.68;;
49153;SDS011;49455;52.252;9.124;2023-07-13T20:14:44;9.38;;;5.00;;
49153;SDS011;49455;52.252;9.124;2023-07-13T20:19:45;8.57;;;5.60;;
49153;SDS011;49455;52.252;9.124;2023-07-13T20:24:46;7.30;;;4.63;;
49153;SDS011;49455;52.252;9.124;2023-07-13T20:29:46;7.65;;;4.82;;
49153;SDS011;49455;52.252;9.124;2023-07-13T20:34:47;7.18;;;4.40;;
49153;SDS011;49455;52.252;9.124;2023-07-13T20:39:47;8.23;;;4.60;;
49153;SDS011;49455;52.252;9.124;2023-07-13T20:44:48;7.45;;;4.80;;
49153;SDS011;49455;52.252;9.124;2023-07-13T20:49:48;8.00;;;4.70;;
49153;SDS011;49455;52.252;9.124;2023-07-13T20:54:49;9.48;;;5.18;;
49153;SDS011;49455;52.252;9.124;2023-07-13T20:59:53;6.35;;;4.60;;
49153;SDS011;49455;52.252;9.124;2023-07-13T21:04:53;7.65;;;4.80;;
49153;SDS011;49455;52.252;9.124;2023-07-13T21:09:54;8.15;;;4.88;;
49153;SDS011;49455;52.252;9.124;2023-07-13T21:14:54;6.73;;;4.77;;
49153;SDS011;49455;52.252;9.124;2023-07-13T21:19:54;10.67;;;5.50;;
49153;SDS011;49455;52.252;9.124;2023-07-13T21:24:55;7.45;;;4.97;;
49153;SDS011;49455;52.252;9.124;2023-07-13T21:29:55;8.35;;;5.22;;
49153;SDS011;49455;52.252;9.124;2023-07-13T21:34:56;9.88;;;5.75;;
49153;SDS011;49455;52.252;9.124;2023-07-13T21:39:56;8.48;;;5.05;;
49153;SDS011;49455;52.252;9.124;2023-07-13T21:44:56;9.05;;;5.82;;
49153;SDS011;49455;52.252;9.124;2023-07-13T21:49:57;9.00;;;6.15;;
49153;SDS011;49455;52.252;9.124;2023-07-13T21:54:57;11.35;;;6.00;;
49153;SDS011;49455;52.252;9.124;2023-07-13T21:59:58;7.68;;;6.22;;
49153;SDS011;49455;52.252;9.124;2023-07-13T22:04:59;9.40;;;5.70;;
49153;SDS011;49455;52.252;9.124;2023-07-13T22:09:59;9.23;;;6.23;;
49153;SDS011;49455;52.252;9.124;2023-07-13T22:15:00;8.87;;;5.87;;
49153;SDS011;49455;52.252;9.124;2023-07-13T22:20:00;9.52;;;6.45;;
49153;SDS011;49455;52.252;9.124;2023-07-13T22:25:01;9.13;;;6.63;;
49153;SDS011;49455;52.252;9.124;2023-07-13T22:30:02;8.27;;;6.53;;
49153;SDS011;49455;52.252;9.124;2023-07-13T22:35:02;8.98;;;6.70;;
49153;SDS011;49455;52.252;9.124;2023-07-13T22:40:07;8.70;;;6.70;;
49153;SDS011;49455;52.252;9.124;2023-07-13T22:45:10;9.23;;;6.60;;
49153;SDS011;49455;52.252;9.124;2023-07-13T22:50:14;9.57;;;6.38;;
49153;SDS011;49455;52.252;9.124;2023-07-13T22:55:16;9.70;;;6.68;;
49153;SDS011;49455;52.252;9.124;2023-07-13T23:00:17;10.43;;;6.68;;
49153;SDS011;49455;52.252;9.124;2023-07-13T23:05:18;9.30;;;6.28;;
49153;SDS011;49455;52.252;9.124;2023-07-13T23:10:19;10.17;;;6.80;;
49153;SDS011;49455;52.252;9.124;2023-07-13T23:15:20;8.57;;;6.32;;
49153;SDS011;49455;52.252;9.124;2023-07-13T23:20:32;11.07;;;6.70;;
49153;SDS011;49455;52.252;9.124;2023-07-13T23:25:34;8.65;;;6.47;;
49153;SDS011;49455;52.252;9.124;2023-07-13T23:30:35;10.23;;;6.32;;
49153;SDS011;49455;52.252;9.124;2023-07-13T23:35:37;8.88;;;6.40;;
49153;SDS011;49455;52.252;9.124;2023-07-13T23:40:38;10.10;;;6.40;;
49153;SDS011;49455;52.252;9.124;2023-07-13T23:45:38;9.23;;;6.50;;
49153;SDS011;49455;52.252;9.124;2023-07-13T23:50:40;10.75;;;6.80;;
49153;SDS011;49455;52.252;9.124;2023-07-13T23:55:42;11.20;;;6.68;;
